Time;durP1;ratioP1;P1;durP2;ratioP2;P2;SDS_P1;SDS_P2;PMS_P1;PMS_P2;Temp;Humidity;BMP_temperature;BMP_pressure;BME280_temperature;BME280_humidity;BME280_pressure;Samples;Min_cycle;Max_cycle;Signal;HPM_P1;HPM_P2
2021/01/18 00:00:26;;;;;;;217.73;90.78;;;38.50;1766.40;;;;;;5013764;28;20080;-66
2021/01/18 00:02:53;;;;;;;209.55;88.40;;;38.50;1766.40;;;;;;5014292;28;20376;-66
2021/01/18 00:05:18;;;;;;;207.27;85.95;;;38.50;1766.40;;;;;;4996348;28;20025;-67
2021/01/18 00:07:51;;;;;;;217.18;84.38;;;38.60;1740.80;;;;;;5018571;28;20033;-67
2021/01/18 00:10:19;;;;;;;225.70;87.13;;;38.60;1740.80;;;;;;5013703;28;20036;-67
2021/01/18 00:12:50;;;;;;;222.25;90.63;;;38.60;1740.80;;;;;;5013731;28;20033;-68
2021/01/18 00:15:18;;;;;;;229.98;95.90;;;38.60;1740.80;;;;;;5013788;28;20026;-69
2021/01/18 00:17:44;;;;;;;236.77;98.45;;;38.60;1740.80;;;;;;5013887;28;20452;-67
2021/01/18 00:20:15;;;;;;;236.65;95.47;;;38.70;1740.80;;;;;;5014026;28;20022;-68
2021/01/18 00:22:42;;;;;;;215.93;96.03;;;38.70;1740.80;;;;;;5013394;28;20109;-67
2021/01/18 00:25:10;;;;;;;221.35;95.25;;;38.70;1715.20;;;;;;5013909;28;20084;-72
2021/01/18 00:27:36;;;;;;;196.45;88.47;;;38.70;1715.20;;;;;;5013618;28;20037;-67
2021/01/18 00:30:10;;;;;;;212.50;90.18;;;38.70;1715.20;;;;;;5013711;28;20482;-67
2021/01/18 00:32:39;;;;;;;210.55;87.18;;;38.80;1715.20;;;;;;5013755;28;20065;-68
2021/01/18 00:35:07;;;;;;;218.95;91.97;;;38.70;1715.20;;;;;;5013696;28;20468;-68
2021/01/18 00:37:39;;;;;;;232.38;98.25;;;38.80;1689.60;;;;;;5013607;28;20507;-67
2021/01/18 00:40:06;;;;;;;225.13;96.88;;;38.80;1689.60;;;;;;5013740;28;20056;-67
2021/01/18 00:42:31;;;;;;;226.80;100.90;;;38.80;1689.60;;;;;;5013677;28;20049;-67
2021/01/18 00:44:57;;;;;;;249.93;106.93;;;38.90;1715.20;;;;;;5013873;28;20029;-67
2021/01/18 00:47:23;;;;;;;286.05;120.07;;;38.90;1715.20;;;;;;5013762;28;20109;-67
2021/01/18 00:49:48;;;;;;;301.50;130.07;;;38.90;1715.20;;;;;;5013819;28;20030;-67
2021/01/18 00:52:14;;;;;;;283.15;118.55;;;38.90;1715.20;;;;;;5013630;28;20077;-67
2021/01/18 00:54:40;;;;;;;275.38;118.95;;;38.90;1689.60;;;;;;5013662;28;20029;-67
2021/01/18 00:57:05;;;;;;;241.63;98.47;;;39.00;1715.20;;;;;;5013404;28;20037;-68
2021/01/18 00:59:31;;;;;;;188.63;82.85;;;39.00;1689.60;;;;;;5013445;28;20087;-68
2021/01/18 01:01:57;;;;;;;155.95;67.82;;;39.00;1689.60;;;;;;5013388;28;20026;-67
2021/01/18 01:04:23;;;;;;;112.90;51.60;;;39.10;1689.60;;;;;;5013638;28;20034;-67
2021/01/18 01:06:57;;;;;;;87.32;39.47;;;39.20;1689.60;;;;;;5013540;28;20028;-70
2021/01/18 01:09:22;;;;;;;62.05;32.25;;;39.20;1664.00;;;;;;5013292;28;20531;-68
2021/01/18 01:11:48;;;;;;;60.90;31.00;;;39.30;1664.00;;;;;;5013114;28;20046;-71
2021/01/18 01:14:14;;;;;;;50.65;27.42;;;39.30;1664.00;;;;;;5013496;28;20076;-67
2021/01/18 01:16:42;;;;;;;46.55;25.60;;;64.00;1638.40;;;;;;5013038;28;20428;-68
2021/01/18 01:19:09;;;;;;;45.53;24.25;;;64.10;1638.40;;;;;;5013416;28;20080;-67
2021/01/18 01:21:34;;;;;;;46.10;24.70;;;64.10;1638.40;;;;;;5013432;28;20033;-67
2021/01/18 01:24:00;;;;;;;48.80;25.00;;;64.20;1638.40;;;;;;4995590;28;20348;-66
2021/01/18 01:26:26;;;;;;;46.30;26.67;;;64.20;1664.00;;;;;;5012900;28;20026;-67
2021/01/18 01:28:52;;;;;;;52.20;26.85;;;64.30;1664.00;;;;;;5013341;28;20057;-67
2021/01/18 01:31:18;;;;;;;48.47;26.30;;;64.30;1689.60;;;;;;5013232;28;20467;-68
2021/01/18 01:33:45;;;;;;;53.40;27.35;;;64.30;1689.60;;;;;;4998082;28;20141;-67
2021/01/18 01:36:11;;;;;;;61.25;27.60;;;64.30;1689.60;;;;;;5016854;28;20029;-67
2021/01/18 01:38:37;;;;;;;59.25;28.45;;;64.30;1715.20;;;;;;5017000;28;20026;-67
2021/01/18 01:41:03;;;;;;;54.45;29.10;;;64.30;1715.20;;;;;;5016775;28;20026;-67
2021/01/18 01:43:29;;;;;;;58.30;29.60;;;64.30;1740.80;;;;;;5016637;28;20060;-67
2021/01/18 01:45:55;;;;;;;55.35;27.50;;;64.40;1740.80;;;;;;5016323;28;20030;-67
2021/01/18 01:48:20;;;;;;;54.90;25.80;;;64.40;1766.40;;;;;;5016683;28;20025;-67
2021/01/18 01:50:47;;;;;;;50.80;25.30;;;64.40;1766.40;;;;;;5016611;28;20337;-67
2021/01/18 01:53:20;;;;;;;51.65;25.48;;;64.40;1792.00;;;;;;5016416;28;20116;-67
2021/01/18 01:55:46;;;;;;;49.08;23.75;;;64.40;1766.40;;;;;;5016512;28;20105;-67
2021/01/18 01:58:13;;;;;;;46.27;21.97;;;64.40;1766.40;;;;;;5016296;28;20464;-67
2021/01/18 02:00:59;;;;;;;42.50;21.10;;;64.40;1766.40;;;;;;5016388;28;20028;-68
2021/01/18 02:03:42;;;;;;;39.92;20.88;;;64.40;1766.40;;;;;;5016338;28;20480;-67
2021/01/18 02:06:09;;;;;;;44.88;22.15;;;64.40;1740.80;;;;;;5016392;28;20475;-67
2021/01/18 02:08:36;;;;;;;44.63;22.85;;;64.50;1740.80;;;;;;5016223;28;20514;-67
2021/01/18 02:11:02;;;;;;;47.28;23.88;;;64.50;1740.80;;;;;;5016013;28;20046;-67
2021/01/18 02:13:43;;;;;;;54.67;24.08;;;64.50;1740.80;;;;;;5015961;28;20368;-67
2021/01/18 02:16:48;;;;;;;50.33;25.85;;;64.50;1740.80;;;;;;5016035;28;20097;-67
2021/01/18 02:19:40;;;;;;;56.88;26.23;;;64.50;1740.80;;;;;;5016198;28;20108;-67
2021/01/18 02:22:24;;;;;;;54.03;24.57;;;64.50;1740.80;;;;;;5015645;28;20372;-67
2021/01/18 02:25:13;;;;;;;57.33;25.67;;;64.60;1715.20;;;;;;5016045;28;20030;-67
2021/01/18 02:28:26;;;;;;;49.13;25.17;;;64.60;1715.20;;;;;;5015905;28;20022;-67
2021/01/18 02:31:10;;;;;;;52.50;23.30;;;64.60;1715.20;;;;;;4920305;29;20059;-67
2021/01/18 02:34:14;;;;;;;61.70;24.80;;;64.60;1715.20;;;;;;4935985;28;20036;-67
2021/01/18 02:37:01;;;;;;;53.53;25.30;;;64.60;1715.20;;;;;;4879577;29;20750;-67
2021/01/18 02:39:35;;;;;;;57.17;24.47;;;64.70;1715.20;;;;;;4879937;29;20036;-66
2021/01/18 02:42:13;;;;;;;52.38;24.05;;;64.70;1715.20;;;;;;4879475;29;20040;-67
2021/01/18 02:44:40;;;;;;;56.70;26.50;;;64.60;1689.60;;;;;;4879044;29;20429;-67
2021/01/18 02:47:08;;;;;;;68.17;33.80;;;64.60;1689.60;;;;;;4879226;29;20048;-67
2021/01/18 02:49:34;;;;;;;67.45;34.63;;;64.60;1689.60;;;;;;4879481;29;20054;-67
2021/01/18 02:52:09;;;;;;;81.60;38.37;;;64.60;1689.60;;;;;;4863556;29;20112;-66
2021/01/18 02:54:36;;;;;;;67.13;35.27;;;64.70;1689.60;;;;;;4879065;29;20523;-68
2021/01/18 02:57:05;;;;;;;69.10;32.70;;;64.70;1689.60;;;;;;4879150;29;20025;-66
2021/01/18 02:59:31;;;;;;;58.20;26.52;;;64.70;1689.60;;;;;;4879121;29;20434;-67
2021/01/18 03:02:02;;;;;;;51.80;27.40;;;64.70;1664.00;;;;;;4879107;29;20033;-67
2021/01/18 03:04:36;;;;;;;55.00;25.43;;;64.70;1664.00;;;;;;4879244;29;20033;-67
2021/01/18 03:07:11;;;;;;;50.50;24.73;;;64.80;1689.60;;;;;;4899068;29;20040;-67
2021/01/18 03:09:46;;;;;;;49.38;24.58;;;64.80;1689.60;;;;;;4916471;29;20111;-67
2021/01/18 03:12:14;;;;;;;52.08;25.45;;;64.80;1664.00;;;;;;4916418;29;20607;-67
2021/01/18 03:14:52;;;;;;;53.37;24.27;;;64.80;1664.00;;;;;;5006657;28;20041;-66
2021/01/18 03:17:22;;;;;;;47.88;22.90;;;64.80;1664.00;;;;;;5014819;28;20029;-66
2021/01/18 03:19:49;;;;;;;51.33;25.50;;;64.80;1664.00;;;;;;5014715;28;20103;-67
2021/01/18 03:22:30;;;;;;;45.93;25.30;;;64.80;1638.40;;;;;;5014963;28;20081;-67
2021/01/18 03:25:04;;;;;;;52.67;28.27;;;64.80;1638.40;;;;;;5014927;28;20169;-67
2021/01/18 03:27:50;;;;;;;68.30;34.50;;;64.80;1638.40;;;;;;5014701;28;20486;-66
2021/01/18 03:30:25;;;;;;;66.20;34.17;;;64.90;1664.00;;;;;;5014508;28;20021;-67
2021/01/18 03:32:53;;;;;;;60.35;31.45;;;64.90;1638.40;;;;;;5014511;28;20491;-67
2021/01/18 03:35:20;;;;;;;65.82;31.45;;;64.90;1638.40;;;;;;5014761;28;20029;-67
2021/01/18 03:37:56;;;;;;;60.93;30.33;;;89.60;1664.00;;;;;;5014537;28;20568;-66
2021/01/18 03:40:24;;;;;;;53.53;27.93;;;89.60;1664.00;;;;;;5014647;28;20026;-67
2021/01/18 03:42:54;;;;;;;57.37;27.53;;;89.60;1664.00;;;;;;5014913;28;20026;-67
2021/01/18 03:45:20;;;;;;;56.55;27.92;;;89.60;1664.00;;;;;;5014382;28;20033;-67
2021/01/18 03:47:46;;;;;;;57.73;28.50;;;89.60;1664.00;;;;;;5014186;28;20029;-68
2021/01/18 03:50:13;;;;;;;55.63;28.05;;;89.60;1664.00;;;;;;5014492;28;20022;-66
2021/01/18 03:52:39;;;;;;;62.20;27.80;;;89.70;1612.80;;;;;;5014351;28;20030;-66
2021/01/18 03:55:05;;;;;;;52.30;26.47;;;89.70;1664.00;;;;;;4996711;28;20057;-66
2021/01/18 03:57:31;;;;;;;55.40;27.63;;;89.70;1638.40;;;;;;5013216;28;20049;-67
2021/01/18 03:59:56;;;;;;;56.90;28.67;;;64.80;1664.00;;;;;;4996475;28;20063;-66
2021/01/18 04:02:22;;;;;;;56.43;26.30;;;89.70;1715.20;;;;;;5014302;28;20018;-67
2021/01/18 04:04:47;;;;;;;55.13;26.63;;;89.70;1689.60;;;;;;5014131;28;20482;-66
2021/01/18 04:07:13;;;;;;;48.93;25.43;;;89.70;1664.00;;;;;;5014124;28;20064;-66
2021/01/18 04:09:39;;;;;;;46.73;23.30;;;89.70;1664.00;;;;;;5013818;28;20022;-66
2021/01/18 04:12:05;;;;;;;52.00;24.53;;;89.70;1664.00;;;;;;5013704;28;20042;-66
2021/01/18 04:14:32;;;;;;;44.50;22.60;;;89.70;1689.60;;;;;;5013990;28;20041;-66
2021/01/18 04:16:57;;;;;;;47.73;23.67;;;89.70;1664.00;;;;;;5014027;28;20086;-66
2021/01/18 04:19:23;;;;;;;45.63;23.60;;;89.70;1689.60;;;;;;5014110;28;20068;-66
2021/01/18 04:21:49;;;;;;;46.23;23.00;;;89.70;1689.60;;;;;;5013676;28;20109;-68
2021/01/18 04:24:15;;;;;;;42.10;22.80;;;89.70;1664.00;;;;;;5014145;28;20037;-66
2021/01/18 04:26:41;;;;;;;50.23;24.40;;;89.70;1664.00;;;;;;5013835;28;20052;-67
2021/01/18 04:29:07;;;;;;;44.60;22.70;;;89.70;1664.00;;;;;;5013705;28;20026;-67
2021/01/18 04:31:37;;;;;;;43.27;22.97;;;89.70;1664.00;;;;;;5013733;28;20527;-66
2021/01/18 04:34:03;;;;;;;42.80;21.13;;;89.70;1664.00;;;;;;5013495;28;20045;-67
2021/01/18 04:36:40;;;;;;;42.97;22.27;;;89.70;1638.40;;;;;;5012983;28;20030;-66
2021/01/18 04:39:08;;;;;;;43.13;23.67;;;89.70;1638.40;;;;;;5013309;28;20044;-66
2021/01/18 04:41:41;;;;;;;42.43;21.90;;;89.70;1638.40;;;;;;5013540;28;20452;-67
2021/01/18 04:44:08;;;;;;;44.83;23.47;;;89.70;1638.40;;;;;;5013700;28;20022;-66
2021/01/18 04:46:39;;;;;;;43.33;23.43;;;89.80;1638.40;;;;;;5014125;28;20395;-68
2021/01/18 04:49:06;;;;;;;41.88;22.42;;;89.80;1638.40;;;;;;5013545;28;20026;-66
2021/01/18 04:51:40;;;;;;;44.07;23.03;;;89.80;1638.40;;;;;;4995998;28;20038;-66
2021/01/18 04:54:14;;;;;;;43.03;21.95;;;89.80;1638.40;;;;;;5013347;28;20069;-68
2021/01/18 04:57:11;;;;;;;41.27;20.30;;;89.80;1638.40;;;;;;5013637;28;20022;-66
2021/01/18 04:59:47;;;;;;;36.47;19.33;;;89.90;1638.40;;;;;;5013935;28;20030;-66
2021/01/18 05:02:14;;;;;;;44.73;22.27;;;89.90;1638.40;;;;;;5013852;28;20022;-66
2021/01/18 05:04:45;;;;;;;47.77;23.63;;;90.00;1638.40;;;;;;5013746;28;20042;-67
2021/01/18 05:07:36;;;;;;;52.67;26.10;;;90.00;1638.40;;;;;;5013956;28;20083;-66
2021/01/18 05:10:12;;;;;;;50.87;26.00;;;90.00;1638.40;;;;;;4938049;29;20114;-66
2021/01/18 05:12:40;;;;;;;53.43;26.40;;;90.00;1638.40;;;;;;4921696;29;20040;-66
2021/01/18 05:15:08;;;;;;;48.63;24.80;;;90.00;1638.40;;;;;;4937582;29;20491;-66
2021/01/18 05:17:40;;;;;;;45.87;23.60;;;90.00;1638.40;;;;;;4937289;29;20028;-67
2021/01/18 05:20:08;;;;;;;45.30;24.40;;;90.00;1638.40;;;;;;4937706;29;20355;-67
2021/01/18 05:22:34;;;;;;;44.60;22.77;;;90.00;1638.40;;;;;;4937651;29;20569;-66
2021/01/18 05:25:06;;;;;;;43.40;21.27;;;90.00;1638.40;;;;;;4937536;29;20028;-66
2021/01/18 05:27:32;;;;;;;47.33;22.17;;;90.00;1638.40;;;;;;4937418;29;20051;-66
2021/01/18 05:29:58;;;;;;;58.10;27.37;;;90.00;1638.40;;;;;;4937336;29;20062;-66
2021/01/18 05:32:25;;;;;;;69.80;32.07;;;90.00;1638.40;;;;;;4937131;29;20035;-66
2021/01/18 05:35:12;;;;;;;63.50;28.57;;;90.00;1664.00;;;;;;4937405;29;20043;-66
2021/01/18 05:38:11;;;;;;;55.70;28.33;;;90.00;1638.40;;;;;;4937352;29;20030;-67
2021/01/18 05:40:45;;;;;;;59.77;26.83;;;90.10;1638.40;;;;;;4862021;29;20038;-66
2021/01/18 05:43:14;;;;;;;99.63;39.75;;;90.10;1638.40;;;;;;4861839;29;20041;-66
2021/01/18 05:45:41;;;;;;;132.77;50.27;;;90.10;1638.40;;;;;;4861985;29;20036;-66
2021/01/18 05:48:08;;;;;;;211.47;90.20;;;90.10;1638.40;;;;;;4916309;29;20036;-66
2021/01/18 05:50:35;;;;;;;451.40;225.07;;;90.10;1638.40;;;;;;4918111;29;20060;-66
2021/01/18 05:53:28;;;;;;;308.37;141.23;;;90.10;1638.40;;;;;;4918177;29;20399;-66
2021/01/18 05:55:53;;;;;;;195.80;95.77;;;90.10;1638.40;;;;;;4917850;29;20422;-66
2021/01/18 05:58:30;;;;;;;281.80;132.40;;;90.10;1638.40;;;;;;4917947;29;20032;-68
2021/01/18 06:00:56;;;;;;;274.67;133.10;;;90.10;1638.40;;;;;;4917897;29;20028;-66
2021/01/18 06:03:27;;;;;;;572.67;266.90;;;90.10;1638.40;;;;;;4917769;29;20059;-66
2021/01/18 06:05:54;;;;;;;367.23;159.67;;;90.10;1638.40;;;;;;4917641;29;20020;-66
2021/01/18 06:08:20;;;;;;;223.03;100.43;;;90.10;1638.40;;;;;;4917726;29;20494;-66
2021/01/18 06:10:53;;;;;;;163.30;74.10;;;90.10;1638.40;;;;;;4917524;29;20509;-66
2021/01/18 06:13:33;;;;;;;183.97;93.00;;;90.10;1638.40;;;;;;4917603;29;20043;-65
2021/01/18 06:16:01;;;;;;;171.50;90.83;;;90.10;1638.40;;;;;;4950913;28;20045;-66
2021/01/18 06:18:31;;;;;;;148.10;83.00;;;90.10;1638.40;;;;;;4996512;28;20030;-65
2021/01/18 06:20:58;;;;;;;106.77;56.80;;;90.10;1664.00;;;;;;4996043;28;20080;-66
2021/01/18 06:23:24;;;;;;;89.90;45.47;;;90.20;1664.00;;;;;;4996740;28;20030;-68
2021/01/18 06:25:54;;;;;;;79.90;40.00;;;90.20;1664.00;;;;;;4996515;28;20109;-66
2021/01/18 06:28:27;;;;;;;96.63;44.77;;;90.20;1664.00;;;;;;4996403;28;20522;-66
2021/01/18 06:30:57;;;;;;;156.90;66.00;;;90.20;1664.00;;;;;;4996176;28;20038;-66
2021/01/18 06:33:34;;;;;;;263.17;104.23;;;90.20;1638.40;;;;;;4996292;28;20030;-65
2021/01/18 06:36:23;;;;;;;204.47;82.07;;;90.20;1638.40;;;;;;4996139;28;20109;-66
2021/01/18 06:38:51;;;;;;;170.70;69.63;;;90.20;1664.00;;;;;;4996413;28;20447;-66
2021/01/18 06:41:32;;;;;;;125.20;55.97;;;90.00;1638.40;;;;;;4996179;28;20023;-66
2021/01/18 06:43:58;;;;;;;95.87;44.83;;;90.20;1638.40;;;;;;4996030;28;20102;-66
2021/01/18 06:46:29;;;;;;;106.70;51.67;;;90.20;1664.00;;;;;;4996077;28;20030;-66
2021/01/18 06:48:55;;;;;;;186.50;88.13;;;90.20;1664.00;;;;;;4996127;28;20034;-65
2021/01/18 06:51:23;;;;;;;188.13;92.37;;;90.20;1664.00;;;;;;4995856;28;20469;-66
2021/01/18 06:53:51;;;;;;;220.07;112.00;;;90.30;1664.00;;;;;;4995839;28;20126;-66
2021/01/18 06:56:23;;;;;;;227.67;114.13;;;90.30;1664.00;;;;;;4995869;28;20471;-66
2021/01/18 06:58:51;;;;;;;166.70;80.43;;;90.30;1664.00;;;;;;4995732;28;20498;-66
2021/01/18 07:01:32;;;;;;;126.53;61.33;;;90.30;1664.00;;;;;;4995820;28;20022;-66
2021/01/18 07:04:05;;;;;;;108.83;54.63;;;90.20;1664.00;;;;;;4994605;28;20022;-66
2021/01/18 07:06:32;;;;;;;161.43;79.50;;;90.20;1664.00;;;;;;4995624;28;20034;-66
2021/01/18 07:09:03;;;;;;;197.83;92.80;;;90.20;1689.60;;;;;;4995792;28;20030;-66
2021/01/18 07:11:29;;;;;;;186.63;87.80;;;90.20;1689.60;;;;;;5006259;28;20506;-66
2021/01/18 07:13:55;;;;;;;144.30;69.07;;;90.20;1689.60;;;;;;5015426;28;20042;-66
2021/01/18 07:16:23;;;;;;;151.90;74.27;;;90.20;1715.20;;;;;;5015192;28;20038;-68
2021/01/18 07:18:54;;;;;;;137.60;65.83;;;90.20;1715.20;;;;;;5015127;28;20044;-67
2021/01/18 07:21:21;;;;;;;173.33;83.70;;;90.20;1715.20;;;;;;5015125;28;20025;-66
2021/01/18 07:23:54;;;;;;;202.70;101.77;;;90.20;1689.60;;;;;;5015003;28;20112;-66
2021/01/18 07:26:31;;;;;;;207.03;96.47;;;90.20;1689.60;;;;;;5015136;28;20383;-66
2021/01/18 07:29:05;;;;;;;307.77;143.67;;;90.20;1715.20;;;;;;5014419;28;20045;-66
2021/01/18 07:31:32;;;;;;;369.75;172.43;;;90.20;1715.20;;;;;;5014568;28;20026;-66
2021/01/18 07:33:58;;;;;;;463.37;230.20;;;90.10;1715.20;;;;;;4997009;28;20491;-66
2021/01/18 07:36:26;;;;;;;441.03;209.33;;;90.10;1715.20;;;;;;5014900;28;20042;-66
2021/01/18 07:38:52;;;;;;;487.07;235.83;;;90.10;1715.20;;;;;;5014750;28;20026;-66
2021/01/18 07:41:20;;;;;;;373.47;164.70;;;90.10;1715.20;;;;;;5014557;28;20026;-66
2021/01/18 07:43:49;;;;;;;385.40;161.77;;;90.10;1715.20;;;;;;5014741;28;20038;-66
2021/01/18 07:46:29;;;;;;;384.00;158.60;;;90.10;1740.80;;;;;;4996808;28;20104;-66
2021/01/18 07:48:56;;;;;;;376.30;154.37;;;90.10;1740.80;;;;;;5014503;28;20037;-66
2021/01/18 07:51:23;;;;;;;419.70;168.63;;;90.10;1715.20;;;;;;5014631;28;20030;-66
2021/01/18 07:53:49;;;;;;;369.83;146.47;;;90.10;1715.20;;;;;;5014517;28;20042;-66
2021/01/18 07:56:30;;;;;;;425.03;177.73;;;90.10;1740.80;;;;;;5014458;28;20471;-66
2021/01/18 07:59:02;;;;;;;479.00;206.73;;;90.10;1740.80;;;;;;5014103;28;20109;-66
2021/01/18 08:01:29;;;;;;;417.53;185.23;;;90.00;1740.80;;;;;;5014263;28;20033;-66
2021/01/18 08:04:17;;;;;;;373.80;161.60;;;90.00;1740.80;;;;;;5014246;28;20022;-66
2021/01/18 08:07:02;;;;;;;363.03;145.73;;;90.00;1740.80;;;;;;5014312;28;20068;-66
2021/01/18 08:09:28;;;;;;;;;;;90.00;1740.80;;;;;;5014617;28;20371;-66
2021/01/18 08:12:12;;;;;;;304.93;96.27;;;90.00;1766.40;;;;;;5014010;28;19917;-66
2021/01/18 08:14:48;;;;;;;243.40;82.10;;;90.00;1766.40;;;;;;5014199;28;20076;-66
2021/01/18 08:17:17;;;;;;;194.43;70.73;;;90.00;1766.40;;;;;;5014131;28;20105;-66
2021/01/18 08:20:06;;;;;;;150.93;55.33;;;90.00;1766.40;;;;;;5014076;28;20479;-66
2021/01/18 08:22:32;;;;;;;136.80;52.83;;;90.10;1766.40;;;;;;5013624;28;20100;-69
2021/01/18 08:24:58;;;;;;;127.83;46.73;;;90.00;1792.00;;;;;;5014116;28;20053;-69
2021/01/18 08:27:47;;;;;;;145.63;57.33;;;90.00;1792.00;;;;;;5013862;28;20058;-70
2021/01/18 08:30:29;;;;;;;295.73;115.27;;;90.00;1792.00;;;;;;5013892;28;20110;-68
2021/01/18 08:33:09;;;;;;;320.83;126.87;;;90.00;1792.00;;;;;;5013773;28;20030;-68
2021/01/18 08:35:44;;;;;;;347.17;140.33;;;89.90;1792.00;;;;;;5014034;28;20117;-68
2021/01/18 08:38:23;;;;;;;321.20;126.50;;;89.90;1792.00;;;;;;5013830;28;20024;-68
2021/01/18 08:40:51;;;;;;;411.43;169.60;;;89.90;1766.40;;;;;;5014016;28;20028;-68
2021/01/18 08:43:21;;;;;;;306.23;121.57;;;89.90;1792.00;;;;;;5015844;28;20022;-68
2021/01/18 08:45:53;;;;;;;225.20;94.27;;;89.80;1792.00;;;;;;5017854;28;20053;-67
2021/01/18 08:48:26;;;;;;;163.23;64.97;;;89.70;1792.00;;;;;;5017614;28;20030;-71
2021/01/18 08:50:58;;;;;;;166.90;71.33;;;89.60;1817.60;;;;;;5017931;28;20092;-71
2021/01/18 08:53:27;;;;;;;126.57;56.07;;;64.90;1817.60;;;;;;5017732;28;20042;-71
2021/01/18 08:56:21;;;;;;;154.90;64.73;;;64.80;1817.60;;;;;;5016660;28;20029;-66
2021/01/18 08:58:48;;;;;;;219.87;97.73;;;64.70;1817.60;;;;;;4935958;29;20035;-65
2021/01/18 09:01:20;;;;;;;254.33;114.97;;;64.70;1817.60;;;;;;4936983;29;20114;-65
2021/01/18 09:03:55;;;;;;;191.50;87.57;;;64.60;1792.00;;;;;;4936674;29;20181;-66
2021/01/18 09:06:20;;;;;;;250.23;102.57;;;64.60;1792.00;;;;;;4932133;29;20118;-65
2021/01/18 09:08:46;;;;;;;167.90;75.40;;;64.60;1792.00;;;;;;4935511;28;20112;-65
2021/01/18 09:11:12;;;;;;;163.23;67.63;;;64.50;1792.00;;;;;;4937887;29;20144;-66
2021/01/18 09:13:39;;;;;;;130.23;59.37;;;64.50;1792.00;;;;;;4937325;29;20043;-65
2021/01/18 09:16:10;;;;;;;131.50;57.50;;;64.40;1792.00;;;;;;4937709;29;20031;-65
2021/01/18 09:18:36;;;;;;;132.40;61.23;;;64.40;1792.00;;;;;;4937707;29;20119;-66
2021/01/18 09:21:07;;;;;;;130.73;58.97;;;64.30;1792.00;;;;;;4937649;29;20031;-65
2021/01/18 09:23:33;;;;;;;195.23;80.77;;;64.20;1792.00;;;;;;4937793;29;20043;-66
2021/01/18 09:26:07;;;;;;;148.63;70.57;;;64.20;1792.00;;;;;;4937631;29;20024;-66
2021/01/18 09:28:34;;;;;;;147.50;66.03;;;64.10;1792.00;;;;;;4937517;29;20114;-67
2021/01/18 09:31:13;;;;;;;128.38;61.78;;;64.00;1792.00;;;;;;4937533;29;20034;-66
2021/01/18 09:33:41;;;;;;;124.53;58.22;;;39.30;1792.00;;;;;;4937329;29;20114;-65
2021/01/18 09:36:14;;;;;;;98.37;50.03;;;39.20;1792.00;;;;;;4996904;28;20118;-66
2021/01/18 09:38:42;;;;;;;106.85;53.63;;;39.10;1792.00;;;;;;5016976;28;20033;-66
2021/01/18 09:41:07;;;;;;;91.75;46.47;;;39.10;1792.00;;;;;;5016995;28;20063;-69
2021/01/18 09:43:33;;;;;;;99.80;50.20;;;39.00;1766.40;;;;;;5016931;28;20480;-69
2021/01/18 09:46:01;;;;;;;106.10;52.15;;;38.90;1766.40;;;;;;5016722;28;20117;-67
2021/01/18 09:48:27;;;;;;;116.35;54.17;;;38.80;1766.40;;;;;;5016827;28;20038;-67
2021/01/18 09:51:08;;;;;;;112.80;55.83;;;38.80;1766.40;;;;;;5016832;28;20104;-66
2021/01/18 09:53:34;;;;;;;107.57;52.65;;;38.80;1792.00;;;;;;5016015;28;20037;-70
2021/01/18 09:56:19;;;;;;;103.30;47.95;;;38.70;1792.00;;;;;;5015948;28;20105;-66
2021/01/18 09:58:51;;;;;;;95.47;47.15;;;38.70;1792.00;;;;;;5016814;28;20053;-70
2021/01/18 10:01:25;;;;;;;115.18;59.97;;;38.60;1792.00;;;;;;5016749;28;20368;-71
2021/01/18 10:03:57;;;;;;;102.13;55.20;;;38.50;1817.60;;;;;;5016831;28;20485;-67
2021/01/18 10:06:28;;;;;;;82.55;44.63;;;38.40;1792.00;;;;;;5016658;28;20109;-68
2021/01/18 10:09:01;;;;;;;74.80;40.28;;;38.40;1817.60;;;;;;5016243;28;20026;-73
2021/01/18 10:11:36;;;;;;;54.42;30.80;;;13.70;1792.00;;;;;;5016210;28;20050;-68
2021/01/18 10:14:02;;;;;;;57.78;29.92;;;13.60;1792.00;;;;;;5015973;28;20088;-66
2021/01/18 10:16:28;;;;;;;75.90;35.58;;;13.60;1792.00;;;;;;5016174;28;20026;-66
2021/01/18 10:18:54;;;;;;;70.30;32.63;;;13.50;1792.00;;;;;;5016235;28;20353;-65
2021/01/18 10:21:33;;;;;;;66.93;33.42;;;13.40;1792.00;;;;;;5014104;28;20026;-66
2021/01/18 10:23:59;;;;;;;64.38;32.60;;;13.30;1792.00;;;;;;5014861;28;20436;-65
2021/01/18 10:26:27;;;;;;;63.05;31.75;;;13.20;1792.00;;;;;;5015277;28;20061;-70
2021/01/18 10:29:01;;;;;;;61.17;31.58;;;13.20;1792.00;;;;;;5014939;28;20025;-70
2021/01/18 10:31:26;;;;;;;64.25;32.83;;;13.10;1792.00;;;;;;5011471;28;20080;-66
2021/01/18 10:34:11;;;;;;;65.30;32.55;;;13.00;1792.00;;;;;;5014079;28;20042;-66
2021/01/18 10:36:37;;;;;;;60.63;31.27;;;12.90;1766.40;;;;;;5014897;28;20391;-69
2021/01/18 10:39:04;;;;;;;112.93;45.45;;;12.90;1766.40;;;;;;4997047;28;20259;-73
2021/01/18 10:41:32;;;;;;;87.25;38.95;;;12.90;1766.40;;;;;;5014860;28;20073;-72
2021/01/18 10:44:06;;;;;;;88.55;38.95;;;0.00;1792.00;;;;;;5014850;28;20375;-67
2021/01/18 10:46:33;;;;;;;91.88;42.20;;;0.10;1766.40;;;;;;5014218;28;20030;-73
2021/01/18 10:48:59;;;;;;;118.43;56.00;;;0.20;1766.40;;;;;;5014681;28;20480;-66
2021/01/18 10:51:28;;;;;;;128.20;63.28;;;0.20;1740.80;;;;;;5014843;28;20390;-66
2021/01/18 10:53:56;;;;;;;95.22;50.78;;;0.30;1740.80;;;;;;5014167;28;20069;-72
2021/01/18 10:56:29;;;;;;;82.53;40.92;;;0.40;1740.80;;;;;;5014382;28;20088;-72
2021/01/18 10:58:56;;;;;;;67.90;35.00;;;0.40;1740.80;;;;;;5014552;28;20087;-65
2021/01/18 11:01:22;;;;;;;60.78;31.50;;;0.50;1740.80;;;;;;5013680;28;20463;-65
2021/01/18 11:03:48;;;;;;;55.50;29.65;;;0.50;1740.80;;;;;;5014455;28;20164;-65
2021/01/18 11:06:22;;;;;;;57.17;29.10;;;0.50;1740.80;;;;;;5013849;28;20460;-66
2021/01/18 11:08:53;;;;;;;46.00;24.77;;;0.60;1740.80;;;;;;4996098;28;20084;-66
2021/01/18 11:11:27;;;;;;;50.35;27.17;;;0.70;1740.80;;;;;;5014171;28;20046;-66
2021/01/18 11:14:06;;;;;;;54.45;29.15;;;0.70;1740.80;;;;;;5014125;28;20040;-66
2021/01/18 11:16:32;;;;;;;52.08;26.73;;;0.70;1715.20;;;;;;5013505;28;20105;-67
2021/01/18 11:19:06;;;;;;;58.60;29.98;;;0.70;1715.20;;;;;;5014421;28;20383;-66
2021/01/18 11:21:32;;;;;;;54.80;27.60;;;0.70;1715.20;;;;;;5014120;28;20026;-66
2021/01/18 11:23:58;;;;;;;52.05;26.75;;;0.80;1689.60;;;;;;5013274;28;20467;-66
2021/01/18 11:26:24;;;;;;;50.20;26.80;;;0.80;1715.20;;;;;;5014037;28;20052;-66
2021/01/18 11:28:50;;;;;;;48.67;26.48;;;0.80;1715.20;;;;;;5019036;28;20022;-66
2021/01/18 11:31:17;;;;;;;45.47;25.02;;;0.90;1715.20;;;;;;5023190;28;20022;-68
2021/01/18 11:33:46;;;;;;;46.83;23.08;;;0.90;1715.20;;;;;;5022182;28;20026;-66
2021/01/18 11:36:12;;;;;;;34.25;20.10;;;25.60;1715.20;;;;;;5023208;28;20025;-67
2021/01/18 11:38:41;;;;;;;36.13;21.02;;;25.60;1689.60;;;;;;5021767;28;20022;-66
2021/01/18 11:41:06;;;;;;;31.40;17.10;;;25.60;1689.60;;;;;;5021312;28;20467;-66
2021/01/18 11:43:35;;;;;;;39.03;20.42;;;25.60;1689.60;;;;;;5026061;28;20056;-67
2021/01/18 11:46:01;;;;;;;42.00;22.48;;;25.60;1689.60;;;;;;5021909;28;20021;-67
2021/01/18 11:48:27;;;;;;;40.67;21.45;;;25.60;1689.60;;;;;;5026913;28;20389;-69
2021/01/18 11:50:53;;;;;;;40.25;20.70;;;25.70;1689.60;;;;;;5021961;28;20071;-66
2021/01/18 11:53:19;;;;;;;41.42;23.90;;;25.70;1689.60;;;;;;5015296;28;20033;-66
2021/01/18 11:55:51;;;;;;;43.28;24.85;;;25.70;1715.20;;;;;;5013410;28;20025;-66
2021/01/18 11:58:17;;;;;;;50.95;24.90;;;25.70;1689.60;;;;;;5013252;28;20022;-66
2021/01/18 12:00:43;;;;;;;44.15;23.85;;;25.70;1689.60;;;;;;5013225;28;20022;-66
2021/01/18 12:03:08;;;;;;;42.25;22.83;;;25.70;1689.60;;;;;;5013465;28;20479;-67
2021/01/18 12:05:35;;;;;;;43.85;23.02;;;25.80;1689.60;;;;;;5013078;28;20478;-67
2021/01/18 12:08:02;;;;;;;40.92;22.92;;;25.80;1689.60;;;;;;5012987;28;20049;-66
2021/01/18 12:10:29;;;;;;;42.97;22.73;;;25.80;1689.60;;;;;;5013013;28;20050;-66
2021/01/18 12:12:55;;;;;;;39.20;23.23;;;25.90;1715.20;;;;;;5013188;28;20030;-67
2021/01/18 12:15:22;;;;;;;43.42;24.58;;;25.90;1715.20;;;;;;5012852;28;20109;-67
2021/01/18 12:17:48;;;;;;;41.05;23.55;;;25.90;1715.20;;;;;;5012431;28;20053;-67
2021/01/18 12:20:19;;;;;;;43.70;24.23;;;26.00;1740.80;;;;;;5012807;28;20045;-67